createdAt,value
2023-12-23T00:00:25.713Z,9.50
2023-12-23T00:03:35.066Z,13.10
2023-12-23T00:06:42.011Z,11.90
2023-12-23T00:09:49.657Z,10.10
2023-12-23T00:12:58.519Z,11.60
2023-12-23T00:16:05.967Z,9.20
2023-12-23T00:19:13.090Z,9.30
2023-12-23T00:22:22.228Z,12.00
2023-12-23T00:25:29.218Z,7.70
2023-12-23T00:28:39.089Z,10.70
2023-12-23T00:31:47.926Z,11.50
2023-12-23T00:34:54.961Z,9.50
2023-12-23T00:38:05.444Z,10.30
2023-12-23T00:41:14.927Z,6.10
2023-12-23T00:44:21.864Z,6.90
2023-12-23T00:47:34.202Z,10.00
2023-12-23T00:50:32.199Z,13.30
2023-12-23T00:53:40.678Z,10.80
2023-12-23T00:56:48.324Z,13.80
2023-12-23T00:59:55.923Z,11.20
2023-12-23T01:03:04.021Z,11.60
2023-12-23T01:06:11.620Z,10.70
2023-12-23T01:09:18.992Z,18.30
2023-12-23T01:12:29.101Z,8.70
2023-12-23T01:15:36.324Z,10.30
2023-12-23T01:18:43.351Z,11.10
2023-12-23T01:21:51.840Z,6.80
2023-12-23T01:24:59.472Z,14.10
2023-12-23T01:28:07.233Z,8.60
2023-12-23T01:31:14.917Z,10.30
2023-12-23T01:34:24.074Z,7.90
2023-12-23T01:37:31.913Z,9.50
2023-12-23T01:40:39.092Z,6.70
2023-12-23T01:43:48.269Z,9.90
2023-12-23T01:46:54.964Z,8.10
2023-12-23T01:50:02.100Z,13.20
2023-12-23T01:53:11.352Z,12.70
2023-12-23T01:56:18.456Z,12.40
2023-12-23T01:59:26.448Z,10.00
2023-12-23T02:02:35.450Z,12.70
2023-12-23T02:05:42.739Z,8.80
2023-12-23T02:08:50.517Z,13.50
2023-12-23T02:11:58.206Z,12.10
2023-12-23T02:15:06.922Z,10.60
2023-12-23T02:18:14.504Z,8.00
2023-12-23T02:21:22.395Z,10.40
2023-12-23T02:24:30.873Z,11.30
2023-12-23T02:27:38.673Z,10.90
2023-12-23T02:30:46.194Z,11.60
2023-12-23T02:33:54.563Z,14.00
2023-12-23T02:37:01.703Z,10.50
2023-12-23T02:40:09.787Z,10.50
2023-12-23T02:43:18.230Z,9.90
2023-12-23T02:46:25.326Z,10.80
2023-12-23T02:49:33.293Z,11.30
2023-12-23T02:52:40.632Z,10.40
2023-12-23T02:55:49.156Z,10.60
2023-12-23T02:58:56.077Z,10.40
2023-12-23T03:02:03.587Z,11.50
2023-12-23T03:05:12.565Z,12.10
2023-12-23T03:08:19.688Z,12.00
2023-12-23T03:11:26.253Z,13.40
2023-12-23T03:14:34.865Z,9.30
2023-12-23T03:17:41.547Z,14.60
2023-12-23T03:18:57.867Z,8.70
2023-12-23T03:22:06.890Z,15.10
2023-12-23T03:25:15.821Z,9.10
2023-12-23T03:28:23.391Z,12.90
2023-12-23T03:31:31.518Z,18.20
2023-12-23T03:34:40.257Z,12.80
2023-12-23T03:37:47.772Z,15.80
2023-12-23T03:40:55.995Z,13.90
2023-12-23T03:44:04.965Z,15.00
2023-12-23T03:47:12.358Z,12.80
2023-12-23T03:50:23.143Z,11.30
2023-12-23T03:53:30.396Z,14.10
2023-12-23T03:56:39.219Z,12.20
2023-12-23T03:59:46.757Z,15.70
2023-12-23T04:02:54.168Z,17.50
2023-12-23T04:06:02.739Z,16.40
2023-12-23T04:09:09.748Z,10.60
2023-12-23T04:12:17.384Z,17.30
2023-12-23T04:15:25.601Z,12.50
2023-12-23T04:18:32.933Z,12.90
2023-12-23T04:21:40.173Z,19.60
2023-12-23T04:24:49.609Z,14.70
2023-12-23T04:27:56.628Z,11.50
2023-12-23T04:31:03.830Z,12.20
2023-12-23T04:34:13.721Z,11.90
2023-12-23T04:37:20.346Z,11.10
2023-12-23T04:40:28.034Z,11.50
2023-12-23T04:43:35.436Z,12.30
2023-12-23T04:46:44.353Z,8.50
2023-12-23T04:49:53.919Z,13.80
2023-12-23T04:53:01.510Z,12.20
2023-12-23T04:56:10.374Z,12.50
2023-12-23T04:59:17.350Z,15.90
2023-12-23T05:02:24.295Z,16.00
2023-12-23T05:05:32.876Z,14.00
2023-12-23T05:08:40.439Z,15.60
2023-12-23T05:11:47.896Z,16.80
2023-12-23T05:14:56.150Z,15.00
2023-12-23T05:18:03.993Z,16.60
2023-12-23T05:21:11.106Z,21.60
2023-12-23T05:24:18.606Z,20.40
2023-12-23T05:27:28.421Z,22.20
2023-12-23T05:30:36.607Z,23.20
2023-12-23T05:32:57.734Z,17.90
2023-12-23T05:36:06.893Z,20.80
2023-12-23T05:39:13.931Z,14.40
2023-12-23T05:42:21.719Z,20.40
2023-12-23T05:45:30.641Z,23.40
2023-12-23T05:48:38.355Z,24.40
2023-12-23T05:51:45.281Z,15.80
2023-12-23T05:54:52.509Z,13.40
2023-12-23T05:58:01.212Z,14.70
2023-12-23T06:01:09.026Z,17.20
2023-12-23T06:04:16.356Z,20.60
2023-12-23T06:07:25.753Z,14.40
2023-12-23T06:10:43.290Z,14.20
2023-12-23T06:13:38.166Z,10.10
2023-12-23T06:16:47.488Z,15.00
2023-12-23T06:19:54.153Z,12.50
2023-12-23T06:23:02.555Z,15.60
2023-12-23T06:26:10.829Z,12.60
2023-12-23T06:26:57.063Z,7.50
2023-12-23T06:30:04.502Z,14.50
2023-12-23T06:33:12.473Z,14.80
2023-12-23T06:36:20.810Z,16.40
2023-12-23T06:39:27.912Z,14.80
2023-12-23T06:42:35.786Z,13.70
2023-12-23T06:45:43.883Z,20.20
2023-12-23T06:48:52.961Z,17.20
2023-12-23T06:51:59.873Z,20.90
2023-12-23T06:55:07.245Z,12.90
2023-12-23T06:58:16.242Z,16.50
2023-12-23T07:01:23.684Z,10.90
2023-12-23T07:04:31.173Z,17.00
2023-12-23T07:07:40.465Z,14.90
2023-12-23T07:10:48.783Z,10.40
2023-12-23T07:13:55.865Z,21.10
2023-12-23T07:17:05.194Z,12.60
2023-12-23T07:20:13.321Z,8.90
2023-12-23T07:23:20.611Z,9.10
2023-12-23T07:26:29.751Z,7.10
2023-12-23T07:29:37.361Z,8.90
2023-12-23T07:32:44.261Z,10.90
2023-12-23T07:35:54.212Z,6.90
2023-12-23T07:39:02.564Z,7.10
2023-12-23T07:42:10.427Z,10.00
2023-12-23T07:45:17.567Z,6.90
2023-12-23T07:48:27.494Z,4.90
2023-12-23T07:51:34.765Z,2.50
2023-12-23T07:54:42.534Z,3.60
2023-12-23T07:57:51.951Z,3.60
2023-12-23T08:00:59.679Z,2.90
2023-12-23T08:04:06.972Z,3.60
2023-12-23T08:07:15.855Z,2.90
2023-12-23T08:10:24.827Z,2.50
2023-12-23T08:13:32.517Z,3.30
2023-12-23T08:16:39.548Z,5.20
2023-12-23T08:19:50.890Z,3.40
2023-12-23T08:22:58.106Z,3.60
2023-12-23T08:26:06.074Z,3.90
2023-12-23T08:29:14.981Z,4.60
2023-12-23T08:32:22.676Z,5.70
2023-12-23T08:35:30.235Z,4.30
2023-12-23T08:38:40.699Z,3.50
2023-12-23T08:41:49.149Z,5.60
2023-12-23T08:44:57.159Z,5.50
2023-12-23T08:48:06.593Z,4.30
2023-12-23T08:51:15.023Z,5.60
2023-12-23T08:54:22.344Z,6.90
2023-12-23T08:57:30.641Z,4.60
2023-12-23T09:00:38.935Z,6.60
2023-12-23T09:03:46.583Z,4.20
2023-12-23T09:06:54.258Z,5.80
2023-12-23T09:10:02.633Z,4.90
2023-12-23T09:13:10.145Z,2.30
2023-12-23T09:16:18.479Z,6.40
2023-12-23T09:19:27.112Z,3.40
2023-12-23T09:22:34.818Z,2.80
2023-12-23T09:25:41.957Z,4.40
2023-12-23T09:28:50.469Z,1.90
2023-12-23T09:31:57.728Z,5.20
2023-12-23T09:35:06.572Z,2.30
2023-12-23T09:38:15.510Z,1.40
2023-12-23T09:41:23.268Z,3.90
2023-12-23T09:44:31.074Z,1.60
2023-12-23T09:47:38.791Z,3.40
2023-12-23T09:50:47.906Z,2.70
2023-12-23T09:53:55.297Z,5.30
2023-12-23T09:57:02.699Z,3.10
2023-12-23T10:00:11.695Z,2.60
2023-12-23T10:03:19.329Z,3.10
2023-12-23T10:06:26.357Z,3.30
2023-12-23T10:09:35.132Z,5.00
2023-12-23T10:12:42.497Z,1.70
2023-12-23T10:15:50.044Z,3.50
2023-12-23T10:18:59.505Z,1.80
2023-12-23T10:22:06.769Z,1.80
2023-12-23T10:25:14.021Z,1.80
2023-12-23T10:28:21.319Z,2.00
2023-12-23T10:31:29.776Z,3.50
2023-12-23T10:34:36.513Z,2.00
2023-12-23T10:37:44.522Z,1.90
2023-12-23T10:40:52.992Z,2.60
2023-12-23T10:44:00.520Z,2.70
2023-12-23T10:47:07.817Z,4.50
2023-12-23T10:50:16.748Z,5.00
2023-12-23T10:53:24.366Z,3.90
2023-12-23T10:56:33.236Z,5.70
2023-12-23T10:59:42.172Z,4.70
2023-12-23T11:02:49.732Z,6.40
2023-12-23T11:05:57.948Z,7.60
2023-12-23T11:09:04.712Z,6.20
2023-12-23T11:12:13.708Z,6.50
2023-12-23T11:15:21.142Z,8.40
2023-12-23T11:18:28.836Z,6.90
2023-12-23T11:21:37.772Z,9.20
2023-12-23T11:24:46.330Z,8.00
2023-12-23T11:27:53.529Z,7.80
2023-12-23T11:31:02.279Z,9.60
2023-12-23T11:34:10.156Z,8.80
2023-12-23T11:37:17.681Z,9.70
2023-12-23T11:40:27.121Z,11.40
2023-12-23T11:43:34.385Z,10.70
2023-12-23T11:46:41.698Z,9.60
2023-12-23T11:49:49.390Z,7.30
2023-12-23T11:52:58.987Z,8.10
2023-12-23T11:56:05.990Z,7.30
2023-12-23T11:59:13.361Z,6.00
2023-12-23T12:02:22.418Z,4.80
2023-12-23T12:05:29.716Z,5.60
2023-12-23T12:08:37.530Z,7.20
2023-12-23T12:11:46.122Z,4.10
2023-12-23T12:14:53.684Z,6.50
2023-12-23T12:18:01.704Z,6.90
2023-12-23T12:21:10.145Z,5.40
2023-12-23T12:24:17.322Z,6.40
2023-12-23T12:27:24.240Z,5.40
2023-12-23T12:30:32.766Z,5.40
2023-12-23T12:33:40.133Z,6.40
2023-12-23T12:36:47.811Z,4.00
2023-12-23T12:39:54.773Z,4.70
2023-12-23T12:43:03.216Z,3.90
2023-12-23T12:46:11.289Z,3.90
2023-12-23T12:49:18.610Z,3.70
2023-12-23T12:52:27.606Z,3.10
2023-12-23T12:55:34.961Z,4.00
2023-12-23T13:01:51.409Z,4.00
2023-12-23T13:04:59.570Z,4.00
2023-12-23T13:08:06.530Z,4.30
2023-12-23T13:11:15.191Z,4.60
2023-12-23T13:14:22.585Z,5.60
2023-12-23T13:17:30.398Z,4.10
2023-12-23T13:20:38.255Z,5.00
2023-12-23T13:23:47.792Z,3.00
2023-12-23T13:26:54.620Z,3.00
2023-12-23T13:30:02.258Z,3.30
2023-12-23T13:33:10.917Z,6.90
2023-12-23T13:36:18.300Z,5.50
2023-12-23T13:39:25.630Z,4.60
2023-12-23T13:42:34.861Z,3.90
2023-12-23T13:45:41.988Z,4.20
2023-12-23T13:48:49.816Z,3.80
2023-12-23T13:51:58.768Z,5.40
2023-12-23T13:55:05.824Z,5.00
2023-12-23T13:58:12.613Z,3.90
2023-12-23T14:01:19.513Z,5.30
2023-12-23T14:04:28.114Z,4.00
2023-12-23T14:07:35.546Z,4.00
2023-12-23T14:10:43.255Z,4.60
2023-12-23T14:13:51.974Z,5.70
2023-12-23T14:16:58.847Z,6.10
2023-12-23T14:20:06.486Z,5.20
2023-12-23T14:23:15.612Z,5.40
2023-12-23T14:26:22.477Z,6.90
2023-12-23T14:29:30.733Z,5.50
2023-12-23T14:32:39.314Z,6.50
2023-12-23T14:35:47.106Z,7.70
2023-12-23T14:38:53.840Z,4.40
2023-12-23T14:42:01.337Z,5.80
2023-12-23T14:45:09.582Z,4.80
2023-12-23T14:48:17.535Z,5.70
2023-12-23T14:51:24.286Z,5.40
2023-12-23T14:54:33.327Z,4.50
2023-12-23T14:57:40.105Z,5.80
2023-12-23T15:00:47.755Z,3.50
2023-12-23T15:03:56.643Z,6.10
2023-12-23T15:07:04.107Z,3.50
2023-12-23T15:10:11.024Z,5.20
2023-12-23T15:13:20.698Z,3.90
2023-12-23T15:16:28.417Z,4.70
2023-12-23T15:19:35.475Z,7.90
2023-12-23T15:22:43.004Z,8.90
2023-12-23T15:25:51.611Z,6.40
2023-12-23T15:28:58.422Z,5.80
2023-12-23T15:32:05.429Z,7.50
2023-12-23T15:35:14.019Z,13.50
2023-12-23T15:38:21.231Z,30.20
2023-12-23T15:41:30.296Z,7.00
2023-12-23T15:44:41.841Z,7.80
2023-12-23T15:47:49.196Z,9.10
2023-12-23T15:50:56.460Z,7.40
2023-12-23T15:54:06.190Z,16.20
2023-12-23T15:57:13.945Z,17.50
2023-12-23T16:00:21.628Z,9.90
2023-12-23T16:03:30.132Z,11.30
2023-12-23T16:06:38.177Z,9.70
2023-12-23T16:09:46.753Z,14.10
2023-12-23T16:12:53.808Z,12.20
2023-12-23T16:16:03.058Z,22.50
2023-12-23T16:19:10.440Z,12.80
2023-12-23T16:22:17.314Z,13.90
2023-12-23T16:25:28.173Z,15.70
2023-12-23T16:28:36.155Z,16.70
2023-12-23T16:31:43.250Z,11.60
2023-12-23T16:34:53.188Z,14.20
2023-12-23T16:38:00.243Z,26.20
2023-12-23T16:41:07.734Z,9.10
2023-12-23T16:44:16.356Z,8.10
2023-12-23T16:47:24.593Z,11.00
2023-12-23T16:50:32.275Z,10.10
2023-12-23T16:53:39.475Z,9.40
2023-12-23T16:56:48.671Z,13.30
2023-12-23T16:59:56.125Z,9.60
2023-12-23T17:03:06.838Z,15.50
2023-12-23T17:06:15.438Z,8.80
2023-12-23T17:09:22.565Z,8.50
2023-12-23T17:12:30.471Z,11.20
2023-12-23T17:15:39.013Z,10.00
2023-12-23T17:18:45.956Z,9.70
2023-12-23T17:21:53.201Z,30.10
2023-12-23T17:25:02.284Z,13.80
2023-12-23T17:28:12.200Z,15.90
2023-12-23T17:31:10.669Z,26.50
2023-12-23T17:34:19.148Z,64.80
2023-12-23T17:37:28.280Z,13.20
2023-12-23T17:40:36.211Z,13.00
2023-12-23T17:43:43.540Z,13.50
2023-12-23T17:46:52.115Z,25.30
2023-12-23T17:50:00.743Z,32.90
2023-12-23T17:53:07.683Z,115.50
2023-12-23T17:56:17.015Z,29.30
2023-12-23T17:59:24.509Z,41.50
2023-12-23T18:02:33.649Z,50.60
2023-12-23T18:05:42.284Z,26.10
2023-12-23T18:08:49.916Z,14.50
2023-12-23T18:11:56.790Z,20.60
2023-12-23T18:15:04.806Z,16.30
2023-12-23T18:18:13.590Z,22.80
2023-12-23T18:21:20.639Z,14.70
2023-12-23T18:24:28.640Z,19.40
2023-12-23T18:27:37.682Z,20.00
2023-12-23T18:30:45.085Z,18.60
2023-12-23T18:33:53.988Z,16.70
2023-12-23T18:37:02.685Z,25.10
2023-12-23T18:40:11.744Z,20.20
2023-12-23T18:43:19.364Z,18.00
2023-12-23T18:46:20.924Z,16.80
2023-12-23T18:49:27.807Z,23.70
2023-12-23T18:52:35.251Z,38.10
2023-12-23T18:55:42.149Z,82.50
2023-12-23T18:58:51.348Z,38.10
2023-12-23T19:01:58.611Z,203.80
2023-12-23T19:05:05.860Z,277.60
2023-12-23T19:08:18.483Z,145.50
2023-12-23T19:11:17.259Z,114.20
2023-12-23T19:14:24.971Z,192.90
2023-12-23T19:17:33.706Z,92.00
2023-12-23T19:20:41.754Z,72.10
2023-12-23T19:23:48.767Z,66.90
2023-12-23T19:26:56.960Z,31.50
2023-12-23T19:30:04.127Z,31.20
2023-12-23T19:33:11.542Z,25.80
2023-12-23T19:36:19.047Z,25.20
2023-12-23T19:39:27.450Z,33.40
2023-12-23T19:42:34.307Z,49.90
2023-12-23T19:45:41.777Z,42.20
2023-12-23T19:48:51.134Z,41.60
2023-12-23T19:51:58.264Z,74.10
2023-12-23T19:55:06.618Z,56.10
2023-12-23T19:58:14.853Z,44.20
2023-12-23T20:01:22.510Z,48.70
2023-12-23T20:04:29.960Z,61.30
2023-12-23T20:07:38.701Z,74.80
2023-12-23T20:11:25.803Z,68.00
2023-12-23T20:14:34.143Z,80.90
2023-12-23T20:17:43.777Z,49.40
2023-12-23T20:20:50.942Z,40.10
2023-12-23T20:23:57.841Z,109.10
2023-12-23T20:27:07.382Z,114.20
2023-12-23T20:30:14.721Z,86.70
2023-12-23T20:33:21.458Z,104.00
2023-12-23T20:36:28.905Z,170.50
2023-12-23T20:39:37.847Z,59.10
2023-12-23T20:42:45.901Z,50.00
2023-12-23T20:45:53.537Z,72.10
2023-12-23T20:49:02.768Z,83.90
2023-12-23T20:52:09.912Z,47.30
2023-12-23T20:55:16.806Z,60.60
2023-12-23T20:58:26.677Z,58.10
2023-12-23T21:01:34.009Z,58.80
2023-12-23T21:04:41.274Z,67.10
2023-12-23T21:07:51.080Z,81.50
2023-12-23T21:10:57.922Z,144.60
2023-12-23T21:14:05.753Z,138.60
2023-12-23T21:17:13.461Z,88.20
2023-12-23T21:20:21.975Z,94.60
2023-12-23T21:23:32.834Z,88.60
2023-12-23T21:26:40.539Z,94.20
2023-12-23T21:29:49.792Z,71.70
2023-12-23T21:32:57.897Z,85.90
2023-12-23T21:36:06.052Z,83.80
2023-12-23T21:39:15.492Z,71.30
2023-12-23T21:42:23.222Z,46.60
2023-12-23T21:45:30.499Z,27.40
2023-12-23T21:48:40.313Z,25.50
2023-12-23T21:51:47.696Z,36.90
2023-12-23T21:54:55.208Z,14.20
2023-12-23T21:58:02.986Z,5.50
2023-12-23T22:01:12.170Z,5.20
2023-12-23T22:04:19.239Z,5.70
2023-12-23T22:07:26.989Z,6.30
2023-12-23T22:10:35.847Z,5.50
2023-12-23T22:13:43.874Z,4.40
2023-12-23T22:16:51.001Z,8.90
2023-12-23T22:20:00.291Z,14.90
2023-12-23T22:23:07.212Z,18.80
2023-12-23T22:26:14.779Z,2.80
2023-12-23T22:29:24.457Z,3.50
2023-12-23T22:32:31.995Z,4.30
2023-12-23T22:35:39.831Z,6.80
2023-12-23T22:38:47.653Z,7.50
2023-12-23T22:41:56.861Z,7.40
2023-12-23T22:45:04.109Z,6.60
2023-12-23T22:48:12.605Z,8.30
2023-12-23T22:51:21.612Z,6.80
2023-12-23T22:54:29.096Z,3.40
2023-12-23T22:57:36.437Z,4.80
2023-12-23T23:00:45.530Z,12.50
2023-12-23T23:03:53.226Z,6.30
2023-12-23T23:07:00.717Z,3.80
2023-12-23T23:10:08.995Z,4.50
2023-12-23T23:13:16.611Z,5.70
2023-12-23T23:16:24.709Z,2.90
2023-12-23T23:19:33.503Z,3.10
2023-12-23T23:22:41.648Z,2.50
2023-12-23T23:25:48.722Z,2.30
2023-12-23T23:28:56.465Z,2.10
2023-12-23T23:32:05.584Z,1.90
2023-12-23T23:35:13.021Z,2.10
2023-12-23T23:38:20.277Z,1.30
2023-12-23T23:41:29.887Z,4.10
2023-12-23T23:44:36.776Z,2.20
2023-12-23T23:47:44.649Z,1.90
2023-12-23T23:50:53.372Z,3.00
2023-12-23T23:54:00.809Z,2.30
2023-12-23T23:57:08.723Z,2.10
